Time;durP1;ratioP1;P1;durP2;ratioP2;P2;SDS_P1;SDS_P2;PMS_P1;PMS_P2;Temp;Humidity;BMP_temperature;BMP_pressure;BME280_temperature;BME280_humidity;BME280_pressure;Samples;Min_cycle;Max_cycle;Signal;HPM_P1;HPM_P2
2022/07/24 00:00:30;;;;;;;6.50;3.67;;;11.10;91.90;;;;;;5030994;28;20135;-69
2022/07/24 00:02:56;;;;;;;10.43;3.78;;;11.00;92.00;;;;;;5025650;28;20036;-69
2022/07/24 00:05:21;;;;;;;9.88;4.18;;;11.10;92.50;;;;;;5020763;28;20044;-69
2022/07/24 00:07:47;;;;;;;5.40;3.60;;;11.00;92.60;;;;;;5026919;28;20163;-69
2022/07/24 00:10:12;;;;;;;8.95;3.55;;;11.00;92.40;;;;;;5029820;28;20099;-70
2022/07/24 00:12:38;;;;;;;5.88;3.50;;;11.00;91.90;;;;;;5026431;28;20034;-69
2022/07/24 00:15:04;;;;;;;7.57;3.85;;;11.00;91.70;;;;;;5029469;28;20022;-70
2022/07/24 00:17:30;;;;;;;5.20;3.78;;;10.90;91.40;;;;;;5025117;28;20130;-70
2022/07/24 00:19:55;;;;;;;5.47;3.70;;;10.90;91.70;;;;;;5029576;28;20041;-69
2022/07/24 00:22:21;;;;;;;5.93;4.00;;;10.90;91.90;;;;;;5029239;28;20492;-70
2022/07/24 00:24:46;;;;;;;7.35;4.32;;;10.90;92.40;;;;;;5030009;28;20461;-69
2022/07/24 00:27:12;;;;;;;6.60;4.03;;;10.90;92.80;;;;;;5025261;28;20025;-69
2022/07/24 00:29:38;;;;;;;6.15;3.92;;;10.90;92.60;;;;;;5029300;28;20017;-70
2022/07/24 00:32:03;;;;;;;7.03;4.00;;;10.80;92.50;;;;;;5027915;28;20036;-70
2022/07/24 00:34:29;;;;;;;7.57;4.43;;;10.80;92.30;;;;;;5024517;28;20028;-69
2022/07/24 00:36:54;;;;;;;7.97;4.55;;;10.80;92.20;;;;;;5026710;28;20041;-70
2022/07/24 00:39:20;;;;;;;6.65;4.20;;;10.80;92.40;;;;;;5030589;28;20413;-70
2022/07/24 00:41:45;;;;;;;7.28;4.53;;;10.80;92.80;;;;;;5017645;28;20042;-69
2022/07/24 00:44:13;;;;;;;6.72;4.38;;;10.80;93.10;;;;;;5023425;28;20037;-70
2022/07/24 00:46:41;;;;;;;7.50;4.13;;;10.80;93.00;;;;;;5019438;28;20519;-69
2022/07/24 00:49:09;;;;;;;8.18;5.15;;;10.70;93.00;;;;;;5026985;28;20036;-69
2022/07/24 00:51:35;;;;;;;8.75;5.65;;;10.80;93.10;;;;;;5022356;28;20039;-69
2022/07/24 00:54:05;;;;;;;8.55;5.07;;;10.80;93.10;;;;;;5028426;28;20029;-70
2022/07/24 00:56:31;;;;;;;7.97;5.30;;;10.80;93.30;;;;;;5027049;28;20038;-70
2022/07/24 00:58:57;;;;;;;9.13;5.13;;;10.80;93.40;;;;;;5030227;28;20288;-69
2022/07/24 01:01:23;;;;;;;8.40;5.50;;;10.70;93.20;;;;;;5028226;28;20483;-70
2022/07/24 01:03:49;;;;;;;9.38;4.78;;;10.70;93.40;;;;;;5027623;28;20029;-69
2022/07/24 01:06:14;;;;;;;9.82;4.95;;;10.70;93.40;;;;;;5029418;28;20046;-69
2022/07/24 01:08:42;;;;;;;8.75;5.30;;;10.60;93.40;;;;;;5027445;28;20479;-69
2022/07/24 01:11:09;;;;;;;9.18;5.22;;;10.70;93.40;;;;;;5024999;28;20784;-69
2022/07/24 01:13:35;;;;;;;9.48;5.82;;;10.60;93.20;;;;;;5029262;28;20033;-69
2022/07/24 01:16:01;;;;;;;8.68;5.45;;;10.60;93.00;;;;;;5028397;28;20026;-69
2022/07/24 01:18:27;;;;;;;8.02;4.85;;;10.60;93.00;;;;;;5023885;28;20119;-69
2022/07/24 01:20:53;;;;;;;10.70;5.28;;;10.50;93.60;;;;;;5020663;28;20568;-69
2022/07/24 01:23:18;;;;;;;9.00;5.57;;;10.50;93.50;;;;;;5025492;28;20469;-69
2022/07/24 01:25:44;;;;;;;6.80;4.40;;;10.50;93.60;;;;;;5027760;28;20041;-69
2022/07/24 01:28:09;;;;;;;6.65;4.32;;;10.40;93.50;;;;;;5026867;28;20166;-70
2022/07/24 01:30:35;;;;;;;7.45;4.80;;;10.40;93.40;;;;;;5029363;28;20120;-69
2022/07/24 01:33:01;;;;;;;7.63;4.82;;;10.40;93.40;;;;;;5027101;28;20079;-70
2022/07/24 01:35:26;;;;;;;8.05;5.38;;;10.40;93.40;;;;;;5028708;28;20306;-69
2022/07/24 01:37:53;;;;;;;7.57;4.97;;;10.40;93.60;;;;;;5027150;28;20049;-69
2022/07/24 01:40:20;;;;;;;10.27;6.00;;;10.40;93.80;;;;;;5026426;28;20041;-69
2022/07/24 01:42:46;;;;;;;12.05;6.00;;;10.40;93.90;;;;;;5028579;28;20030;-69
2022/07/24 01:45:11;;;;;;;9.57;6.68;;;10.50;94.10;;;;;;5029007;28;20357;-69
2022/07/24 01:47:37;;;;;;;11.48;6.22;;;10.50;94.30;;;;;;5025390;28;20162;-70
2022/07/24 01:50:03;;;;;;;10.10;7.00;;;10.50;94.30;;;;;;5028228;28;20040;-69
2022/07/24 01:52:29;;;;;;;11.00;7.30;;;10.50;94.40;;;;;;5026101;28;20037;-69
2022/07/24 01:54:54;;;;;;;11.27;6.30;;;10.60;94.70;;;;;;5025745;28;20025;-69
2022/07/24 01:57:20;;;;;;;12.70;7.43;;;10.70;94.90;;;;;;5027294;28;20021;-70
2022/07/24 01:59:46;;;;;;;10.68;6.88;;;10.60;94.80;;;;;;5027102;28;20029;-69
2022/07/24 02:02:11;;;;;;;10.88;6.82;;;10.70;94.90;;;;;;5027006;28;20127;-69
2022/07/24 02:04:37;;;;;;;11.48;6.88;;;10.70;95.30;;;;;;5028396;28;20061;-69
2022/07/24 02:07:03;;;;;;;10.45;6.97;;;10.60;95.10;;;;;;5020233;28;20026;-69
2022/07/24 02:09:28;;;;;;;12.32;6.32;;;10.70;95.20;;;;;;5024555;28;20020;-69
2022/07/24 02:11:54;;;;;;;12.05;6.18;;;10.60;95.00;;;;;;5021407;28;20392;-69
2022/07/24 02:14:19;;;;;;;8.43;6.40;;;10.60;95.00;;;;;;5027875;28;20034;-70
2022/07/24 02:16:45;;;;;;;10.55;6.05;;;10.60;95.00;;;;;;5025542;28;20025;-69
2022/07/24 02:19:11;;;;;;;9.90;6.07;;;10.60;95.10;;;;;;5027909;28;20033;-69
2022/07/24 02:21:37;;;;;;;10.80;6.60;;;10.60;95.30;;;;;;5030935;28;20037;-69
2022/07/24 02:24:03;;;;;;;8.68;6.00;;;10.60;95.20;;;;;;5032416;28;20505;-69
2022/07/24 02:26:29;;;;;;;10.05;6.18;;;10.50;95.20;;;;;;5032106;28;20064;-70
2022/07/24 02:28:55;;;;;;;10.65;5.95;;;10.60;95.20;;;;;;5031826;28;20140;-70
2022/07/24 02:31:20;;;;;;;8.40;5.50;;;10.50;95.00;;;;;;5029732;28;20055;-69
2022/07/24 02:33:46;;;;;;;10.70;6.50;;;10.50;95.00;;;;;;5022135;28;20037;-70
2022/07/24 02:36:11;;;;;;;10.90;6.18;;;10.50;95.10;;;;;;5031292;28;20109;-70
2022/07/24 02:38:37;;;;;;;9.65;5.72;;;10.40;94.80;;;;;;5028231;28;20136;-69
2022/07/24 02:41:03;;;;;;;9.02;5.78;;;10.50;94.90;;;;;;5031326;28;20036;-69
2022/07/24 02:43:28;;;;;;;8.48;6.15;;;10.50;94.90;;;;;;5032386;28;20033;-70
2022/07/24 02:45:54;;;;;;;12.95;5.82;;;10.50;95.10;;;;;;5031944;28;20033;-70
2022/07/24 02:48:20;;;;;;;8.15;5.28;;;10.60;95.00;;;;;;5026904;28;20037;-70
2022/07/24 02:50:45;;;;;;;11.02;5.80;;;10.60;95.10;;;;;;5027157;28;20354;-69
2022/07/24 02:53:11;;;;;;;13.35;6.10;;;10.60;95.20;;;;;;5030294;28;20041;-69
2022/07/24 02:55:36;;;;;;;11.25;6.63;;;10.60;95.20;;;;;;5023400;28;20327;-70
2022/07/24 02:58:03;;;;;;;13.10;6.70;;;10.70;95.30;;;;;;5030704;28;20025;-67
2022/07/24 03:00:28;;;;;;;10.15;6.05;;;10.70;95.20;;;;;;5029611;28;20025;-67
2022/07/24 03:02:54;;;;;;;9.60;5.82;;;10.70;95.20;;;;;;5024686;28;20376;-67
2022/07/24 03:05:19;;;;;;;11.07;6.47;;;10.80;95.20;;;;;;5032149;28;20044;-67
2022/07/24 03:07:46;;;;;;;10.82;6.47;;;10.70;95.00;;;;;;5027280;28;20048;-67
2022/07/24 03:10:12;;;;;;;10.35;6.00;;;10.70;95.00;;;;;;5022311;28;20163;-67
2022/07/24 03:12:38;;;;;;;11.55;6.22;;;10.80;95.10;;;;;;5023656;28;20397;-69
2022/07/24 03:15:05;;;;;;;10.50;6.22;;;10.80;95.00;;;;;;5018796;28;20022;-69
2022/07/24 03:17:30;;;;;;;13.70;5.88;;;10.80;95.00;;;;;;5028395;28;20260;-69
2022/07/24 03:19:56;;;;;;;9.25;5.00;;;10.80;95.00;;;;;;5028216;28;20114;-69
2022/07/24 03:22:21;;;;;;;8.88;6.00;;;10.80;94.90;;;;;;5028247;28;20030;-69
2022/07/24 03:24:47;;;;;;;11.45;6.03;;;10.80;94.90;;;;;;5031627;28;20060;-69
2022/07/24 03:27:13;;;;;;;9.90;5.90;;;10.80;94.90;;;;;;5030059;28;20112;-69
2022/07/24 03:29:38;;;;;;;11.00;5.70;;;10.80;94.90;;;;;;5028690;28;20032;-69
2022/07/24 03:32:04;;;;;;;9.15;6.00;;;10.80;94.90;;;;;;5017558;28;20033;-69
2022/07/24 03:34:30;;;;;;;8.30;5.32;;;10.90;94.80;;;;;;5023855;28;20461;-69
2022/07/24 03:36:55;;;;;;;8.38;5.85;;;10.80;94.80;;;;;;5032340;28;20049;-69
2022/07/24 03:39:21;;;;;;;7.82;5.47;;;10.90;94.80;;;;;;5025855;28;20037;-69
2022/07/24 03:41:46;;;;;;;10.27;6.03;;;10.90;94.80;;;;;;5027825;28;20432;-69
2022/07/24 03:44:13;;;;;;;9.43;5.18;;;10.80;94.70;;;;;;5022189;28;20039;-69
2022/07/24 03:46:38;;;;;;;11.65;5.20;;;10.90;94.80;;;;;;5021512;28;20105;-69
2022/07/24 03:49:04;;;;;;;8.43;5.43;;;10.90;94.90;;;;;;5027341;28;20108;-69
2022/07/24 03:51:30;;;;;;;12.55;6.88;;;11.00;95.10;;;;;;5027935;28;20068;-69
2022/07/24 03:53:55;;;;;;;13.55;6.07;;;11.10;95.10;;;;;;5028854;28;20549;-69
2022/07/24 03:56:21;;;;;;;10.73;5.35;;;11.10;94.90;;;;;;5022258;28;20030;-69
2022/07/24 03:58:47;;;;;;;7.72;5.22;;;11.20;94.80;;;;;;5029575;28;20030;-69
2022/07/24 04:01:12;;;;;;;12.25;5.82;;;11.20;94.80;;;;;;5030087;28;20392;-69
2022/07/24 04:03:38;;;;;;;7.25;5.15;;;11.30;94.60;;;;;;5029628;28;20087;-69
2022/07/24 04:06:05;;;;;;;7.45;5.03;;;11.30;94.70;;;;;;5028556;28;20473;-69
2022/07/24 04:08:31;;;;;;;8.77;4.85;;;11.30;94.50;;;;;;5031304;28;20546;-69
2022/07/24 04:10:57;;;;;;;10.27;4.82;;;11.30;94.40;;;;;;5026815;28;20116;-69
2022/07/24 04:13:24;;;;;;;9.80;5.05;;;11.40;94.40;;;;;;5029605;28;20112;-69
2022/07/24 04:15:49;;;;;;;8.45;4.95;;;11.50;94.30;;;;;;5028104;28;20036;-69
2022/07/24 04:18:15;;;;;;;6.40;4.45;;;11.50;94.10;;;;;;5019053;28;20412;-70
2022/07/24 04:20:41;;;;;;;7.13;4.65;;;11.50;94.10;;;;;;5026409;28;20033;-70
2022/07/24 04:23:06;;;;;;;11.25;4.78;;;11.60;94.10;;;;;;5030337;28;20037;-71
2022/07/24 04:25:34;;;;;;;6.50;4.25;;;11.60;93.90;;;;;;5028029;28;20490;-70
2022/07/24 04:28:02;;;;;;;8.23;4.80;;;11.60;93.80;;;;;;5029016;28;20112;-70
2022/07/24 04:30:28;;;;;;;10.23;4.90;;;11.60;93.80;;;;;;5029243;28;20038;-70
2022/07/24 04:32:54;;;;;;;7.20;4.07;;;11.70;93.80;;;;;;5025094;28;20030;-70
2022/07/24 04:35:19;;;;;;;8.02;4.03;;;11.80;93.80;;;;;;5029021;28;20025;-70
2022/07/24 04:37:45;;;;;;;10.30;4.50;;;11.90;93.50;;;;;;5029231;28;20045;-70
2022/07/24 04:40:12;;;;;;;9.85;4.10;;;12.00;93.30;;;;;;5025241;28;20033;-70
2022/07/24 04:42:37;;;;;;;8.45;4.00;;;12.10;93.30;;;;;;5028759;28;20037;-70
2022/07/24 04:45:04;;;;;;;5.82;3.90;;;12.10;93.30;;;;;;5025718;28;20113;-70
2022/07/24 04:47:30;;;;;;;7.20;3.72;;;12.20;93.00;;;;;;5021593;28;20615;-70
2022/07/24 04:49:55;;;;;;;6.15;3.53;;;12.20;92.80;;;;;;5018869;28;20034;-71
2022/07/24 04:52:21;;;;;;;6.22;3.38;;;12.30;92.60;;;;;;5029878;28;20112;-70
2022/07/24 04:54:46;;;;;;;10.52;3.53;;;12.30;92.60;;;;;;5022531;28;20041;-70
2022/07/24 04:57:12;;;;;;;7.18;3.67;;;12.40;92.20;;;;;;5026042;28;20457;-70
2022/07/24 04:59:37;;;;;;;7.38;3.60;;;12.50;92.00;;;;;;5028376;28;20488;-70
2022/07/24 05:02:03;;;;;;;7.82;3.42;;;12.50;91.80;;;;;;5027076;28;20033;-70
2022/07/24 05:04:29;;;;;;;4.90;3.38;;;12.60;91.70;;;;;;5027633;28;20036;-71
2022/07/24 05:06:54;;;;;;;6.93;3.10;;;12.70;91.50;;;;;;5029535;28;20029;-70
2022/07/24 05:09:20;;;;;;;6.65;3.50;;;12.70;91.10;;;;;;5022520;28;20132;-70
2022/07/24 05:11:45;;;;;;;5.82;3.00;;;12.90;91.00;;;;;;5018086;28;20460;-70
2022/07/24 05:14:11;;;;;;;11.27;3.40;;;13.00;90.60;;;;;;5023954;28;20026;-70
2022/07/24 05:16:36;;;;;;;5.38;3.00;;;13.00;90.40;;;;;;5023721;28;20026;-71
2022/07/24 05:19:02;;;;;;;4.93;3.10;;;13.10;90.10;;;;;;5027067;28;20029;-70
2022/07/24 05:21:28;;;;;;;4.70;2.67;;;13.20;90.10;;;;;;5025907;28;20033;-71
2022/07/24 05:23:53;;;;;;;5.68;2.50;;;13.40;90.00;;;;;;5026799;28;20469;-70
2022/07/24 05:26:19;;;;;;;5.65;2.97;;;13.50;89.70;;;;;;5026146;28;20027;-70
2022/07/24 05:28:44;;;;;;;5.32;2.95;;;13.60;89.70;;;;;;5025561;28;20033;-70
2022/07/24 05:31:10;;;;;;;4.20;2.42;;;13.60;89.00;;;;;;5028916;28;20065;-70
2022/07/24 05:33:35;;;;;;;5.47;2.60;;;13.80;88.90;;;;;;5029288;28;20021;-70
2022/07/24 05:36:01;;;;;;;4.97;2.22;;;13.90;88.40;;;;;;5028508;28;20065;-70
2022/07/24 05:38:26;;;;;;;8.15;2.70;;;14.10;88.50;;;;;;5026092;28;20041;-70
2022/07/24 05:40:52;;;;;;;5.70;2.40;;;14.20;87.80;;;;;;5026092;28;20492;-70
2022/07/24 05:43:17;;;;;;;4.05;1.92;;;14.30;87.30;;;;;;5025516;28;20038;-70
2022/07/24 05:45:43;;;;;;;4.38;2.40;;;14.50;87.40;;;;;;5023019;28;20029;-70
2022/07/24 05:48:09;;;;;;;5.53;2.38;;;14.60;86.80;;;;;;5018485;28;20049;-74
2022/07/24 05:50:35;;;;;;;3.65;2.28;;;14.70;86.50;;;;;;5026535;28;20026;-74
2022/07/24 05:53:00;;;;;;;2.97;2.00;;;14.90;86.20;;;;;;5013366;28;20033;-74
2022/07/24 05:55:26;;;;;;;4.40;2.22;;;15.00;85.60;;;;;;5023968;28;20037;-74
2022/07/24 05:57:51;;;;;;;3.70;2.15;;;15.10;85.60;;;;;;5023845;28;20346;-74
2022/07/24 06:00:20;;;;;;;6.25;2.03;;;15.30;85.60;;;;;;5024538;28;20539;-74
2022/07/24 06:02:46;;;;;;;3.08;1.83;;;15.50;85.50;;;;;;5020748;28;20029;-74
2022/07/24 06:05:12;;;;;;;3.65;1.60;;;15.60;85.20;;;;;;5027575;28;20018;-74
2022/07/24 06:07:37;;;;;;;5.57;2.17;;;15.70;85.00;;;;;;5023048;28;20038;-74
2022/07/24 06:10:04;;;;;;;2.88;1.70;;;15.70;84.00;;;;;;5029162;28;20038;-74
2022/07/24 06:12:29;;;;;;;4.28;1.85;;;15.70;83.90;;;;;;5017726;28;20488;-74
2022/07/24 06:14:55;;;;;;;4.15;1.98;;;15.70;84.50;;;;;;5018576;28;20041;-74
2022/07/24 06:17:20;;;;;;;4.00;1.85;;;15.70;84.30;;;;;;5014345;28;20105;-74
2022/07/24 06:19:46;;;;;;;3.25;1.80;;;15.80;84.70;;;;;;5026825;28;20043;-74
2022/07/24 06:22:11;;;;;;;6.85;1.85;;;15.90;84.70;;;;;;5027209;28;20397;-74
2022/07/24 06:24:37;;;;;;;4.00;1.85;;;16.00;85.00;;;;;;5026845;28;20037;-74
2022/07/24 06:27:04;;;;;;;4.18;1.88;;;16.10;84.30;;;;;;5027392;28;20044;-74
2022/07/24 06:29:30;;;;;;;4.20;1.50;;;16.20;83.20;;;;;;5026857;28;20742;-74
2022/07/24 06:31:56;;;;;;;1.60;1.50;;;16.40;83.20;;;;;;5022902;28;20056;-74
2022/07/24 06:34:23;;;;;;;2.53;1.50;;;16.60;83.10;;;;;;5020408;28;20080;-74
2022/07/24 06:36:50;;;;;;;4.28;1.65;;;16.70;82.80;;;;;;5025666;28;20037;-74
2022/07/24 06:39:15;;;;;;;4.85;1.73;;;16.80;81.90;;;;;;5026037;28;20029;-74
2022/07/24 06:41:40;;;;;;;5.43;1.63;;;17.00;81.50;;;;;;5025866;28;20397;-74
2022/07/24 06:44:06;;;;;;;3.20;1.45;;;17.10;82.20;;;;;;5020623;28;20110;-74
2022/07/24 06:46:31;;;;;;;2.75;1.40;;;17.30;81.50;;;;;;5024863;28;20430;-74
2022/07/24 06:48:57;;;;;;;5.53;1.42;;;17.30;81.00;;;;;;5026754;28;20069;-74
2022/07/24 06:51:22;;;;;;;4.28;1.52;;;17.50;80.50;;;;;;5022707;28;20033;-74
2022/07/24 06:53:48;;;;;;;3.35;1.65;;;17.60;79.80;;;;;;5024188;28;20032;-74
2022/07/24 06:56:13;;;;;;;3.63;1.75;;;17.80;79.70;;;;;;5028846;28;20366;-73
2022/07/24 06:58:39;;;;;;;3.80;1.50;;;17.90;78.70;;;;;;5026639;28;20034;-74
2022/07/24 07:01:05;;;;;;;3.13;1.10;;;18.00;78.40;;;;;;5019368;28;20069;-74
2022/07/24 07:03:30;;;;;;;3.03;1.50;;;18.10;77.90;;;;;;5022639;28;20041;-74
2022/07/24 07:05:55;;;;;;;1.55;1.30;;;18.40;79.00;;;;;;5028505;28;20034;-74
2022/07/24 07:08:21;;;;;;;3.50;1.40;;;18.50;78.00;;;;;;5028746;28;20040;-74
2022/07/24 07:10:47;;;;;;;3.25;1.30;;;18.70;77.90;;;;;;5029028;28;20485;-74
2022/07/24 07:13:12;;;;;;;2.72;1.40;;;19.00;77.80;;;;;;5027574;28;20461;-74
2022/07/24 07:15:38;;;;;;;4.50;1.60;;;19.00;74.70;;;;;;5018777;28;20022;-74
2022/07/24 07:18:03;;;;;;;3.63;1.48;;;19.10;74.40;;;;;;5028938;28;20104;-74
2022/07/24 07:20:29;;;;;;;3.45;1.70;;;19.10;75.30;;;;;;5027966;28;20631;-74
2022/07/24 07:22:54;;;;;;;3.25;1.48;;;19.30;74.40;;;;;;5029642;28;20034;-74
2022/07/24 07:25:20;;;;;;;1.85;1.33;;;19.40;74.60;;;;;;5028161;28;20463;-74
2022/07/24 07:27:45;;;;;;;4.78;1.20;;;19.50;73.50;;;;;;5026377;28;20079;-74
2022/07/24 07:30:12;;;;;;;3.25;1.42;;;19.70;72.30;;;;;;5031220;28;20029;-74
2022/07/24 07:32:38;;;;;;;4.18;1.40;;;19.90;73.00;;;;;;5027707;28;20030;-74
2022/07/24 07:35:04;;;;;;;2.08;1.40;;;20.10;73.20;;;;;;5028858;28;20034;-74
2022/07/24 07:37:30;;;;;;;6.35;1.30;;;20.20;72.70;;;;;;5024141;28;20496;-74
2022/07/24 07:39:57;;;;;;;7.32;1.50;;;20.20;70.10;;;;;;5031254;28;20037;-74
2022/07/24 07:42:22;;;;;;;3.55;1.35;;;20.30;70.50;;;;;;5028814;28;20520;-74
2022/07/24 07:44:48;;;;;;;2.03;1.30;;;20.50;69.30;;;;;;5027050;28;20164;-74
2022/07/24 07:47:13;;;;;;;3.20;1.50;;;20.50;70.10;;;;;;5025372;28;20385;-74
2022/07/24 07:49:39;;;;;;;3.90;1.38;;;20.80;68.90;;;;;;5029616;28;20077;-74
2022/07/24 07:52:05;;;;;;;3.55;1.60;;;21.00;68.40;;;;;;5026556;28;20354;-74
2022/07/24 07:54:30;;;;;;;2.75;1.45;;;21.00;68.20;;;;;;5021484;28;20029;-74
2022/07/24 07:56:56;;;;;;;3.05;1.27;;;21.30;67.90;;;;;;5024296;28;20018;-74
2022/07/24 07:59:21;;;;;;;3.15;1.33;;;21.30;67.50;;;;;;5026058;28;20017;-74
2022/07/24 08:01:47;;;;;;;5.38;1.55;;;21.60;67.10;;;;;;5021158;28;20476;-74
2022/07/24 08:04:12;;;;;;;6.68;1.20;;;21.70;66.30;;;;;;5020084;28;20026;-74
2022/07/24 08:06:38;;;;;;;2.05;1.13;;;22.00;68.10;;;;;;5028075;28;20048;-74
2022/07/24 08:09:04;;;;;;;1.70;1.17;;;21.90;64.30;;;;;;5022646;28;20168;-74
2022/07/24 08:11:29;;;;;;;2.55;1.08;;;22.10;66.30;;;;;;5028169;28;20484;-74
2022/07/24 08:13:55;;;;;;;3.35;1.38;;;22.20;64.90;;;;;;5026129;28;20568;-74
2022/07/24 08:16:20;;;;;;;3.67;1.40;;;22.30;63.70;;;;;;5024560;28;20030;-73
2022/07/24 08:18:46;;;;;;;3.10;1.20;;;22.30;64.20;;;;;;5029998;28;20029;-73
2022/07/24 08:21:11;;;;;;;2.33;1.20;;;22.50;63.50;;;;;;5031113;28;20489;-74
2022/07/24 08:23:37;;;;;;;2.50;1.33;;;22.80;64.70;;;;;;5029404;28;20045;-74
2022/07/24 08:26:02;;;;;;;1.60;1.10;;;23.20;64.90;;;;;;5029484;28;20037;-73
2022/07/24 08:28:28;;;;;;;2.42;1.40;;;23.00;61.10;;;;;;5028574;28;20034;-73
2022/07/24 08:30:54;;;;;;;2.97;1.60;;;22.90;60.00;;;;;;5027528;28;20183;-73
2022/07/24 08:33:20;;;;;;;3.30;1.35;;;22.90;62.20;;;;;;5026125;28;20068;-70
2022/07/24 08:35:45;;;;;;;2.50;1.33;;;23.00;62.10;;;;;;5026248;28;20048;-70
2022/07/24 08:38:11;;;;;;;2.60;1.65;;;23.20;59.60;;;;;;5022347;28;20045;-70
2022/07/24 08:40:38;;;;;;;1.90;1.30;;;23.30;60.70;;;;;;5026397;28;20037;-71
2022/07/24 08:43:05;;;;;;;2.13;1.25;;;23.60;61.40;;;;;;5025333;28;20057;-70
2022/07/24 08:45:35;;;;;;;2.63;1.38;;;23.60;57.60;;;;;;5027243;28;20159;-71
2022/07/24 08:48:04;;;;;;;3.37;1.47;;;23.70;59.70;;;;;;5023872;28;20127;-70
2022/07/24 08:50:30;;;;;;;4.25;1.60;;;24.00;59.70;;;;;;5025584;28;20172;-70
2022/07/24 08:52:57;;;;;;;2.05;1.30;;;23.90;58.40;;;;;;5024239;28;20034;-70
2022/07/24 08:55:23;;;;;;;2.90;1.67;;;24.00;58.10;;;;;;5014663;28;20029;-70
2022/07/24 08:57:48;;;;;;;2.70;1.50;;;24.30;58.20;;;;;;5023859;28;20021;-70
2022/07/24 09:00:14;;;;;;;4.43;1.52;;;24.50;56.90;;;;;;5026707;28;20041;-70
2022/07/24 09:02:40;;;;;;;2.95;1.40;;;24.50;56.10;;;;;;5024109;28;20382;-70
2022/07/24 09:05:06;;;;;;;2.90;1.58;;;24.60;57.80;;;;;;5029808;28;20377;-70
2022/07/24 09:07:32;;;;;;;4.35;1.88;;;24.50;56.30;;;;;;5029140;28;20041;-71
2022/07/24 09:10:04;;;;;;;2.47;1.80;;;24.80;57.10;;;;;;5025941;28;20033;-71
2022/07/24 09:12:45;;;;;;;2.67;1.70;;;25.00;55.60;;;;;;5024597;28;20138;-71
2022/07/24 09:15:18;;;;;;;3.83;1.75;;;25.20;57.00;;;;;;5021581;28;20028;-70
2022/07/24 09:17:52;;;;;;;2.45;1.30;;;25.20;54.70;;;;;;5028334;28;20378;-71
2022/07/24 09:20:18;;;;;;;3.13;1.50;;;25.50;52.20;;;;;;5031191;28;20025;-71
2022/07/24 09:22:44;;;;;;;4.47;1.80;;;25.60;54.30;;;;;;5022739;28;20026;-70
2022/07/24 09:25:14;;;;;;;2.65;1.63;;;25.30;54.10;;;;;;5025946;28;20588;-71
2022/07/24 09:27:50;;;;;;;3.65;1.70;;;25.20;53.70;;;;;;5025368;28;20503;-70
2022/07/24 09:30:28;;;;;;;4.80;1.98;;;25.20;53.00;;;;;;5027569;28;20038;-71
2022/07/24 09:32:58;;;;;;;4.53;1.83;;;25.40;53.90;;;;;;5024541;28;20488;-71
2022/07/24 09:35:32;;;;;;;2.35;1.67;;;25.50;53.60;;;;;;5025148;28;20079;-71
2022/07/24 09:37:59;;;;;;;6.05;1.92;;;25.40;54.30;;;;;;5025331;28;20092;-70
2022/07/24 09:40:34;;;;;;;5.60;2.20;;;25.00;53.70;;;;;;5027233;28;20109;-72
2022/07/24 09:43:23;;;;;;;4.03;2.03;;;24.70;53.90;;;;;;5023672;28;20016;-71
2022/07/24 09:46:00;;;;;;;4.57;1.80;;;24.70;55.90;;;;;;5020702;28;20030;-70
2022/07/24 09:48:28;;;;;;;3.80;2.00;;;24.70;56.90;;;;;;5022456;28;20075;-70
2022/07/24 09:50:56;;;;;;;4.95;2.00;;;24.50;54.80;;;;;;5021366;28;20034;-70
2022/07/24 09:53:25;;;;;;;3.55;2.00;;;25.00;56.50;;;;;;5022148;28;20483;-70
2022/07/24 09:55:57;;;;;;;6.53;2.15;;;25.40;53.00;;;;;;5024329;28;20017;-70
2022/07/24 09:58:23;;;;;;;4.63;2.60;;;25.70;52.40;;;;;;5017591;28;20044;-70
2022/07/24 10:00:50;;;;;;;3.85;2.53;;;25.80;51.70;;;;;;5025409;28;20091;-70
2022/07/24 10:03:23;;;;;;;6.95;2.60;;;25.90;51.80;;;;;;5026927;28;20053;-70
2022/07/24 10:05:55;;;;;;;4.47;2.28;;;26.10;51.90;;;;;;5021563;28;20021;-70
2022/07/24 10:08:20;;;;;;;3.88;2.35;;;26.50;52.20;;;;;;5019992;28;20060;-70
2022/07/24 10:10:48;;;;;;;4.70;2.40;;;26.70;52.80;;;;;;5027357;28;20029;-70
2022/07/24 10:13:14;;;;;;;4.30;1.95;;;26.70;50.10;;;;;;5023209;28;20485;-71
2022/07/24 10:15:58;;;;;;;3.55;1.92;;;26.90;50.70;;;;;;5029757;28;20040;-72
2022/07/24 10:18:34;;;;;;;3.08;2.30;;;26.90;49.10;;;;;;5024769;28;20100;-71
2022/07/24 10:21:06;;;;;;;5.50;2.30;;;27.20;48.40;;;;;;5018169;28;20034;-70
2022/07/24 10:23:45;;;;;;;5.03;2.40;;;27.20;48.10;;;;;;5021624;28;20056;-70
2022/07/24 10:26:25;;;;;;;6.25;1.98;;;27.30;48.10;;;;;;5020121;28;20040;-73
2022/07/24 10:28:54;;;;;;;5.30;2.40;;;27.50;48.50;;;;;;5016994;28;20409;-70
2022/07/24 10:31:19;;;;;;;4.97;2.50;;;27.60;48.80;;;;;;5018097;28;20034;-70
2022/07/24 10:33:50;;;;;;;4.03;2.30;;;27.90;48.90;;;;;;5023054;28;20087;-71
2022/07/24 10:36:21;;;;;;;4.00;2.00;;;27.90;47.60;;;;;;5019506;28;20036;-72
2022/07/24 10:39:02;;;;;;;3.40;2.03;;;28.00;47.50;;;;;;5024997;28;20452;-72
2022/07/24 10:41:28;;;;;;;5.00;2.40;;;27.90;47.00;;;;;;5025048;28;20500;-71
2022/07/24 10:44:14;;;;;;;4.28;2.30;;;27.70;47.00;;;;;;5026834;28;20053;-72
2022/07/24 10:47:03;;;;;;;4.53;2.58;;;28.00;46.80;;;;;;5023624;28;20490;-73
2022/07/24 10:49:34;;;;;;;5.97;2.40;;;28.50;47.40;;;;;;5019294;28;20021;-73
2022/07/24 10:52:00;;;;;;;4.50;2.40;;;28.40;48.60;;;;;;5030548;28;20511;-72
2022/07/24 10:54:26;;;;;;;4.68;2.70;;;28.30;47.10;;;;;;5027960;28;20032;-72
2022/07/24 10:56:51;;;;;;;4.43;2.50;;;28.50;46.90;;;;;;5019999;28;20573;-72
2022/07/24 10:59:33;;;;;;;5.63;2.97;;;28.60;47.20;;;;;;5018118;28;20504;-72
2022/07/24 11:02:29;;;;;;;3.88;2.78;;;28.80;46.80;;;;;;5021418;28;23043;-72
2022/07/24 11:05:38;;;;;;;8.43;2.65;;;28.60;47.10;;;;;;5022092;28;20037;-72
2022/07/24 11:08:13;;;;;;;4.15;2.45;;;29.00;44.40;;;;;;5026677;28;20119;-72
2022/07/24 11:10:47;;;;;;;4.22;2.53;;;29.30;46.20;;;;;;5023657;28;20033;-72
2022/07/24 11:13:31;;;;;;;5.07;2.28;;;28.80;46.60;;;;;;5029783;28;20091;-73
2022/07/24 11:16:14;;;;;;;5.80;3.10;;;29.00;45.10;;;;;;5030460;28;20033;-72
2022/07/24 11:19:02;;;;;;;3.28;2.30;;;29.10;45.10;;;;;;5023290;28;20475;-72
2022/07/24 11:21:35;;;;;;;4.40;2.40;;;29.40;43.80;;;;;;5024187;28;20427;-72
2022/07/24 11:24:23;;;;;;;3.92;2.70;;;29.50;45.60;;;;;;5032103;28;20061;-72
2022/07/24 11:26:50;;;;;;;5.15;2.50;;;29.40;46.30;;;;;;5016999;28;20045;-71
2022/07/24 11:29:22;;;;;;;4.00;2.42;;;29.50;45.70;;;;;;5022150;28;20059;-73
2022/07/24 11:31:53;;;;;;;4.68;2.65;;;29.40;45.70;;;;;;5030804;28;20045;-72
2022/07/24 11:34:18;;;;;;;;;;;29.60;43.40;;;;;;5026057;28;20068;-72
2022/07/24 11:36:47;;;;;;;4.80;2.53;;;29.70;43.20;;;;;;5027308;28;19991;-72
2022/07/24 11:39:18;;;;;;;4.07;2.25;;;29.60;43.60;;;;;;5026593;28;20464;-73
2022/07/24 11:41:55;;;;;;;4.68;2.80;;;29.70;43.70;;;;;;5027284;28;20029;-73
2022/07/24 11:44:29;;;;;;;4.55;2.72;;;29.60;44.90;;;;;;5029556;28;20435;-72
2022/07/24 11:46:56;;;;;;;4.57;2.90;;;29.50;43.80;;;;;;5016672;28;20033;-72
2022/07/24 11:49:23;;;;;;;4.13;2.67;;;29.60;45.20;;;;;;5028715;28;20136;-73
2022/07/24 11:51:51;;;;;;;3.63;2.30;;;29.30;44.90;;;;;;5023697;28;20029;-72
2022/07/24 11:54:26;;;;;;;3.55;2.50;;;29.10;45.10;;;;;;5031123;28;20030;-72
2022/07/24 11:56:52;;;;;;;3.97;2.45;;;29.40;48.40;;;;;;5019757;28;20021;-72
2022/07/24 11:59:30;;;;;;;11.30;2.97;;;29.50;44.50;;;;;;5029687;28;20080;-72
2022/07/24 12:02:04;;;;;;;3.45;2.63;;;30.30;45.50;;;;;;5028074;28;20029;-72
2022/07/24 12:04:30;;;;;;;3.60;2.47;;;30.60;43.00;;;;;;5023116;28;20099;-72
2022/07/24 12:06:56;;;;;;;4.20;2.50;;;30.30;42.70;;;;;;5031488;28;20477;-72
2022/07/24 12:09:21;;;;;;;4.72;2.85;;;30.40;42.50;;;;;;5027264;28;20033;-72
2022/07/24 12:11:47;;;;;;;3.85;2.67;;;30.60;44.00;;;;;;5030565;28;20353;-71
2022/07/24 12:14:18;;;;;;;4.82;3.13;;;30.20;41.40;;;;;;5029854;28;20056;-72
2022/07/24 12:16:51;;;;;;;5.05;3.00;;;30.00;42.80;;;;;;5026054;28;20488;-72
2022/07/24 12:19:20;;;;;;;6.40;3.10;;;30.00;44.10;;;;;;5026016;28;20017;-71
2022/07/24 12:21:47;;;;;;;4.57;2.70;;;30.90;41.60;;;;;;5027882;28;20116;-71
2022/07/24 12:24:13;;;;;;;3.45;2.47;;;30.70;40.30;;;;;;5032650;28;20017;-72
2022/07/24 12:26:52;;;;;;;5.38;2.80;;;31.30;40.50;;;;;;5024770;28;20022;-71
2022/07/24 12:29:19;;;;;;;5.55;2.58;;;31.20;40.50;;;;;;5029606;28;20112;-72
2022/07/24 12:31:45;;;;;;;4.32;2.50;;;31.90;39.00;;;;;;5028237;28;20040;-72
2022/07/24 12:34:11;;;;;;;7.25;2.83;;;32.20;38.80;;;;;;5028981;28;20030;-72
2022/07/24 12:36:37;;;;;;;5.68;2.55;;;31.90;38.50;;;;;;5023213;28;20033;-72
2022/07/24 12:39:04;;;;;;;3.90;2.40;;;31.00;41.10;;;;;;5024679;28;20055;-72
2022/07/24 12:41:31;;;;;;;5.25;2.67;;;31.60;39.40;;;;;;5025913;28;20163;-71
2022/07/24 12:43:59;;;;;;;5.38;2.88;;;32.00;39.00;;;;;;5027004;28;20132;-71
2022/07/24 12:46:29;;;;;;;5.75;2.70;;;32.00;37.90;;;;;;5021324;28;20074;-71